createdAt,value
2018-04-28T00:01:04.485Z,99125.08
2018-04-28T00:03:31.936Z,99125.66
2018-04-28T00:05:59.490Z,99123.80
2018-04-28T00:08:30.923Z,99120.19
2018-04-28T00:10:58.466Z,99122.58
2018-04-28T00:13:26.027Z,99131.31
2018-04-28T00:15:53.558Z,99130.58
2018-04-28T00:18:24.666Z,99132.03
2018-04-28T00:20:52.187Z,99136.94
2018-04-28T00:23:19.703Z,99143.00
2018-04-28T00:25:58.133Z,99142.21
2018-04-28T00:28:48.388Z,99143.09
2018-04-28T00:31:37.532Z,99137.95
2018-04-28T00:34:16.892Z,99140.68
2018-04-28T00:40:03.207Z,99151.50
2018-04-28T00:42:35.646Z,99151.12
2018-04-28T00:45:05.157Z,99150.36
2018-04-28T00:47:32.660Z,99145.31
2018-04-28T00:50:02.984Z,99150.36
2018-04-28T00:52:30.581Z,99150.72
2018-04-28T00:55:17.639Z,99152.99
2018-04-28T01:01:06.641Z,99145.92
2018-04-28T01:03:35.898Z,99153.19
2018-04-28T01:06:03.397Z,99157.63
2018-04-28T01:08:30.973Z,99155.63
2018-04-28T01:11:04.373Z,99153.06
2018-04-28T01:16:27.127Z,99146.34
2018-04-28T01:18:56.573Z,99148.55
2018-04-28T01:21:42.748Z,99152.84
2018-04-28T01:27:33.095Z,99149.00
2018-04-28T01:33:10.120Z,99163.57
2018-04-28T01:38:43.093Z,99163.66
2018-04-28T01:41:36.167Z,99165.52
2018-04-28T01:44:09.453Z,99172.68
2018-04-28T01:46:56.392Z,99170.05
2018-04-28T01:52:28.380Z,99171.00
2018-04-28T01:55:02.661Z,99169.64
2018-04-28T01:57:40.108Z,99171.05
2018-04-28T02:00:16.050Z,99176.33
2018-04-28T02:02:46.306Z,99173.95
2018-04-28T02:08:11.678Z,99179.34
2018-04-28T02:10:46.526Z,99181.12
2018-04-28T02:13:14.804Z,99179.78
2018-04-28T02:15:45.177Z,99186.84
2018-04-28T02:18:16.246Z,99186.70
2018-04-28T02:20:55.506Z,99191.69
2018-04-28T02:23:43.682Z,99188.13
2018-04-28T02:29:41.258Z,99196.08
2018-04-28T02:32:12.504Z,99199.04
2018-04-28T02:37:47.137Z,99207.22
2018-04-28T02:40:34.386Z,99207.56
2018-04-28T02:43:02.044Z,99207.26
2018-04-28T02:45:33.335Z,99213.20
2018-04-28T02:48:04.710Z,99221.59
2018-04-28T02:50:32.204Z,99218.66
2018-04-28T02:53:11.662Z,99223.44
2018-04-28T02:55:48.998Z,99222.52
2018-04-28T02:58:18.021Z,99224.27
2018-04-28T03:03:49.514Z,99223.72
2018-04-28T03:06:27.723Z,99224.35
2018-04-28T03:08:55.257Z,99228.17
2018-04-28T03:11:22.791Z,99225.71
2018-04-28T03:13:52.006Z,99221.92
2018-04-28T03:16:30.113Z,99214.38
2018-04-28T03:19:12.486Z,99225.23
2018-04-28T03:21:49.194Z,99234.75
2018-04-28T03:24:23.055Z,99234.13
2018-04-28T03:27:03.669Z,99234.00
2018-04-28T03:29:34.110Z,99240.24
2018-04-28T03:32:01.612Z,99240.30
2018-04-28T03:34:33.652Z,99237.39
2018-04-28T03:40:16.880Z,99248.23
2018-04-28T03:42:46.206Z,99253.06
2018-04-28T03:45:13.736Z,99252.75
2018-04-28T03:50:37.768Z,99258.95
2018-04-28T03:53:23.822Z,99259.39
2018-04-28T03:56:07.900Z,99273.77
2018-04-28T03:58:47.237Z,99262.79
2018-04-28T04:01:26.555Z,99265.28
2018-04-28T04:04:01.088Z,99271.98
2018-04-28T04:06:43.488Z,99271.94
2018-04-28T04:09:12.729Z,99272.83
2018-04-28T04:14:49.917Z,99282.52
2018-04-28T04:20:53.540Z,99282.91
2018-04-28T04:23:28.777Z,99278.95
2018-04-28T04:29:18.541Z,99291.92
2018-04-28T04:31:55.762Z,99295.28
2018-04-28T04:34:45.783Z,99294.36
2018-04-28T04:37:27.797Z,99297.27
2018-04-28T04:40:01.149Z,99296.29
2018-04-28T04:42:31.219Z,99302.53
2018-04-28T04:45:03.378Z,99302.80
2018-04-28T04:47:38.553Z,99300.92
2018-04-28T04:50:12.003Z,99308.32
2018-04-28T04:52:43.373Z,99311.45
2018-04-28T04:58:32.748Z,99318.20
2018-04-28T05:01:15.963Z,99324.11
2018-04-28T05:07:11.429Z,99337.34
2018-04-28T05:13:06.378Z,99339.30
2018-04-28T05:15:44.530Z,99342.02
2018-04-28T05:18:24.676Z,99346.41
2018-04-28T05:21:04.008Z,99357.23
2018-04-28T05:26:57.495Z,99357.59
2018-04-28T05:29:47.406Z,99365.30
2018-04-28T05:38:45.467Z,99372.51
2018-04-28T05:41:20.763Z,99374.05
2018-04-28T05:46:52.833Z,99378.78
2018-04-28T05:49:28.126Z,99377.41
2018-04-28T05:51:58.418Z,99378.27
2018-04-28T05:54:43.690Z,99379.27
2018-04-28T05:57:17.827Z,99381.64
2018-04-28T06:03:08.882Z,99382.06
2018-04-28T06:05:38.987Z,99380.06
2018-04-28T06:11:46.486Z,99378.80
2018-04-28T06:14:25.726Z,99375.92
2018-04-28T06:17:00.130Z,99381.36
2018-04-28T06:22:32.502Z,99387.48
2018-04-28T06:25:00.027Z,99386.13
2018-04-28T06:27:27.558Z,99386.32
2018-04-28T06:29:55.068Z,99389.78
2018-04-28T06:32:22.587Z,99388.97
2018-04-28T06:34:50.087Z,99386.61
2018-04-28T06:37:17.597Z,99385.95
2018-04-28T06:39:45.131Z,99384.41
2018-04-28T06:42:12.632Z,99383.28
2018-04-28T06:44:40.173Z,99389.56
2018-04-28T06:47:07.717Z,99390.72
2018-04-28T06:49:35.243Z,99395.49
2018-04-28T06:52:02.782Z,99396.30
2018-04-28T06:54:30.288Z,99399.69
2018-04-28T06:56:57.801Z,99404.18
2018-04-28T06:59:25.324Z,99405.39
2018-04-28T07:01:52.869Z,99408.66
2018-04-28T07:04:20.454Z,99412.14
2018-04-28T07:06:47.993Z,99412.91
2018-04-28T07:09:15.503Z,99407.06
2018-04-28T07:11:43.031Z,99405.69
2018-04-28T07:16:44.304Z,99407.00
2018-04-28T07:19:11.796Z,99403.77
2018-04-28T07:21:39.320Z,99409.91
2018-04-28T07:24:06.847Z,99409.56
2018-04-28T07:26:34.381Z,99415.64
2018-04-28T07:29:01.890Z,99414.11
2018-04-28T07:31:29.400Z,99412.23
2018-04-28T07:33:56.909Z,99411.95
2018-04-28T07:36:24.422Z,99409.56
2018-04-28T07:38:51.916Z,99408.80
2018-04-28T07:41:19.409Z,99418.80
2018-04-28T07:43:46.940Z,99420.00
2018-04-28T07:46:14.467Z,99415.96
2018-04-28T07:48:42.015Z,99417.55
2018-04-28T07:51:09.535Z,99422.14
2018-04-28T07:53:37.061Z,99424.41
2018-04-28T07:56:04.569Z,99427.33
2018-04-28T07:58:32.060Z,99425.92
2018-04-28T08:00:59.579Z,99423.06
2018-04-28T08:03:27.117Z,99428.25
2018-04-28T08:18:56.602Z,99437.97
2018-04-28T08:21:24.151Z,99439.00
2018-04-28T08:23:51.665Z,99441.28
2018-04-28T08:26:19.200Z,99442.30
2018-04-28T08:28:46.709Z,99437.41
2018-04-28T08:31:14.226Z,99437.16
2018-04-28T08:33:41.740Z,99435.56
2018-04-28T08:36:09.275Z,99428.30
2018-04-28T08:38:36.814Z,99434.72
2018-04-28T08:41:04.335Z,99432.70
2018-04-28T08:43:31.853Z,99434.28
2018-04-28T08:45:59.346Z,99427.19
2018-04-28T08:48:26.842Z,99429.20
2018-04-28T08:50:54.351Z,99419.52
2018-04-28T08:53:21.882Z,99424.27
2018-04-28T08:55:49.363Z,99419.13
2018-04-28T08:58:17.138Z,99416.19
2018-04-28T09:01:03.455Z,99421.30
2018-04-28T09:03:30.997Z,99407.70
2018-04-28T09:05:58.502Z,99405.45
2018-04-28T09:08:26.021Z,99405.53
2018-04-28T09:10:53.524Z,99406.50
2018-04-28T09:13:21.040Z,99404.19
2018-04-28T09:15:48.573Z,99404.08
2018-04-28T09:18:16.063Z,99397.56
2018-04-28T09:20:43.552Z,99395.20
2018-04-28T09:23:11.119Z,99403.98
2018-04-28T09:25:38.623Z,99398.41
2018-04-28T09:28:06.117Z,99388.94
2018-04-28T09:30:33.662Z,99392.33
2018-04-28T09:33:01.228Z,99390.56
2018-04-28T09:35:28.768Z,99389.63
2018-04-28T09:37:56.290Z,99389.33
2018-04-28T09:40:23.841Z,99383.71
2018-04-28T09:42:51.436Z,99380.95
2018-04-28T09:45:18.999Z,99378.92
2018-04-28T09:47:46.579Z,99383.03
2018-04-28T09:50:14.219Z,99382.61
2018-04-28T09:52:41.781Z,99381.20
2018-04-28T09:55:09.286Z,99379.25
2018-04-28T09:57:36.807Z,99381.47
2018-04-28T10:00:16.245Z,99380.31
2018-04-28T10:02:43.803Z,99372.88
2018-04-28T10:05:11.378Z,99368.77
2018-04-28T10:07:38.967Z,99373.73
2018-04-28T10:10:06.561Z,99374.14
2018-04-28T10:12:34.089Z,99376.11
2018-04-28T10:15:01.639Z,99369.70
2018-04-28T10:17:29.220Z,99367.42
2018-04-28T10:19:56.750Z,99362.48
2018-04-28T10:22:24.331Z,99356.53
2018-04-28T10:24:51.878Z,99356.36
2018-04-28T10:27:19.470Z,99354.19
2018-04-28T10:29:46.971Z,99352.41
2018-04-28T10:32:14.450Z,99347.45
2018-04-28T10:34:58.866Z,99336.00
2018-04-28T10:37:26.435Z,99342.66
2018-04-28T10:39:53.923Z,99339.96
2018-04-28T10:42:21.380Z,99334.91
2018-04-28T10:44:48.915Z,99328.20
2018-04-28T10:47:16.434Z,99323.36
2018-04-28T10:49:43.972Z,99328.03
2018-04-28T10:52:11.492Z,99319.58
2018-04-28T10:54:39.019Z,99322.71
2018-04-28T10:57:06.545Z,99321.42
2018-04-28T10:59:34.035Z,99319.89
2018-04-28T11:02:01.548Z,99305.89
2018-04-28T11:04:29.192Z,99298.70
2018-04-28T11:06:56.733Z,99300.55
2018-04-28T11:09:24.230Z,99298.96
2018-04-28T11:11:51.770Z,99296.16
2018-04-28T11:14:19.257Z,99289.37
2018-04-28T11:16:46.753Z,99287.98
2018-04-28T11:19:14.241Z,99288.98
2018-04-28T11:21:41.736Z,99286.23
2018-04-28T11:24:09.256Z,99278.83
2018-04-28T11:26:36.773Z,99276.37
2018-04-28T11:29:04.302Z,99268.36
2018-04-28T11:31:31.829Z,99267.98
2018-04-28T11:33:59.345Z,99265.63
2018-04-28T11:36:26.880Z,99257.80
2018-04-28T11:38:54.512Z,99260.17
2018-04-28T11:41:22.091Z,99259.22
2018-04-28T11:43:50.511Z,99253.53
2018-04-28T11:46:18.192Z,99256.25
2018-04-28T11:48:45.696Z,99253.44
2018-04-28T11:51:13.241Z,99247.71
2018-04-28T11:53:40.798Z,99243.41
2018-04-28T11:56:08.372Z,99243.89
2018-04-28T11:58:35.842Z,99236.94
2018-04-28T12:01:03.341Z,99234.31
2018-04-28T12:03:30.846Z,99223.51
2018-04-28T12:05:58.334Z,99224.08
2018-04-28T12:08:25.842Z,99214.83
2018-04-28T12:10:53.342Z,99210.45
2018-04-28T12:13:20.876Z,99207.38
2018-04-28T12:15:48.367Z,99199.41
2018-04-28T12:18:15.859Z,99194.25
2018-04-28T12:20:43.367Z,99191.36
2018-04-28T12:23:10.846Z,99189.03
2018-04-28T12:25:38.328Z,99188.92
2018-04-28T12:28:05.839Z,99191.00
2018-04-28T12:30:33.407Z,99192.28
2018-04-28T12:33:01.025Z,99190.73
2018-04-28T12:35:28.523Z,99192.30
2018-04-28T12:37:56.023Z,99187.86
2018-04-28T12:40:23.563Z,99193.58
2018-04-28T12:42:51.103Z,99188.77
2018-04-28T12:45:18.596Z,99181.05
2018-04-28T12:47:46.095Z,99174.00
2018-04-28T12:50:13.579Z,99180.91
2018-04-28T12:52:41.053Z,99169.25
2018-04-28T12:55:08.561Z,99167.95
2018-04-28T12:57:36.054Z,99163.65
2018-04-28T13:00:03.713Z,99157.77
2018-04-28T13:02:31.206Z,99158.56
2018-04-28T13:04:58.706Z,99150.03
2018-04-28T13:07:26.192Z,99151.92
2018-04-28T13:09:53.659Z,99142.23
2018-04-28T13:12:21.141Z,99144.80
2018-04-28T13:14:48.641Z,99146.52
2018-04-28T13:17:16.146Z,99146.36
2018-04-28T13:19:43.654Z,99131.71
2018-04-28T13:22:11.190Z,99137.56
2018-04-28T13:24:38.726Z,99128.09
2018-04-28T13:27:06.242Z,99127.07
2018-04-28T13:29:33.770Z,99128.84
2018-04-28T13:32:01.280Z,99120.15
2018-04-28T13:34:28.767Z,99121.84
2018-04-28T13:36:56.703Z,99118.07
2018-04-28T13:39:24.252Z,99110.66
2018-04-28T13:41:51.726Z,99107.84
2018-04-28T13:44:19.314Z,99106.84
2018-04-28T13:46:46.818Z,99100.20
2018-04-28T13:49:14.323Z,99098.36
2018-04-28T13:51:41.816Z,99103.06
2018-04-28T13:54:09.318Z,99098.83
2018-04-28T13:56:36.801Z,99085.47
2018-04-28T13:59:04.319Z,99092.49
2018-04-28T14:01:31.824Z,99092.59
2018-04-28T14:03:59.329Z,99086.03
2018-04-28T14:06:26.861Z,99096.86
2018-04-28T14:08:55.013Z,99085.42
2018-04-28T14:11:23.390Z,99081.91
2018-04-28T14:13:50.925Z,99085.23
2018-04-28T14:16:18.434Z,99080.50
2018-04-28T14:18:45.955Z,99075.35
2018-04-28T14:21:13.428Z,99071.96
2018-04-28T14:23:41.005Z,99070.37
2018-04-28T14:26:08.603Z,99070.06
2018-04-28T14:28:36.102Z,99061.00
2018-04-28T14:31:03.605Z,99056.42
2018-04-28T14:33:31.146Z,99060.00
2018-04-28T14:35:58.643Z,99059.78
2018-04-28T14:38:26.146Z,99054.77
2018-04-28T14:40:53.660Z,99040.73
2018-04-28T14:43:21.145Z,99044.17
2018-04-28T14:45:48.618Z,99042.16
2018-04-28T14:48:16.106Z,99031.81
2018-04-28T14:50:43.598Z,99038.64
2018-04-28T14:53:11.058Z,99031.34
2018-04-28T14:55:38.541Z,99032.92
2018-04-28T14:58:06.047Z,99034.19
2018-04-28T15:00:33.555Z,99042.94
2018-04-28T15:03:01.067Z,99030.42
2018-04-28T15:05:28.559Z,99035.76
2018-04-28T15:07:56.046Z,99030.55
2018-04-28T15:10:23.547Z,99038.44
2018-04-28T15:12:51.011Z,99036.04
2018-04-28T15:15:18.493Z,99027.86
2018-04-28T15:17:45.981Z,99030.89
2018-04-28T15:20:13.475Z,99032.91
2018-04-28T15:22:40.979Z,99032.00
2018-04-28T15:25:08.500Z,99030.86
2018-04-28T15:27:35.996Z,99029.84
2018-04-28T15:30:03.479Z,99035.00
2018-04-28T15:32:30.970Z,99029.40
2018-04-28T15:34:58.559Z,99023.55
2018-04-28T15:37:25.958Z,99024.95
2018-04-28T15:39:53.439Z,99028.68
2018-04-28T15:42:20.906Z,99015.09
2018-04-28T15:44:48.415Z,99014.11
2018-04-28T15:47:15.916Z,99015.00
2018-04-28T15:49:43.400Z,99017.67
2018-04-28T15:52:10.892Z,99012.67
2018-04-28T15:54:38.400Z,99012.78
2018-04-28T15:57:06.014Z,98993.75
2018-04-28T15:59:33.530Z,98997.79
2018-04-28T16:02:01.015Z,98994.39
2018-04-28T16:04:28.494Z,99004.11
2018-04-28T16:06:55.966Z,98997.50
2018-04-28T16:09:23.497Z,99002.52
2018-04-28T16:11:50.954Z,98995.13
2018-04-28T16:14:18.466Z,98993.44
2018-04-28T16:16:45.923Z,98984.79
2018-04-28T16:19:13.394Z,98975.52
2018-04-28T16:21:40.884Z,98984.95
2018-04-28T16:24:08.406Z,98982.08
2018-04-28T16:26:35.873Z,98983.28
2018-04-28T16:29:03.396Z,98979.63
2018-04-28T16:31:30.945Z,98979.56
2018-04-28T16:33:58.431Z,98973.61
2018-04-28T16:36:25.915Z,98978.64
2018-04-28T16:38:53.378Z,98979.00
2018-04-28T16:41:20.852Z,98974.98
2018-04-28T16:43:48.342Z,98971.89
2018-04-28T16:46:15.804Z,98970.33
2018-04-28T16:48:43.337Z,98972.27
2018-04-28T16:51:10.843Z,98967.62
2018-04-28T16:53:38.367Z,98966.75
2018-04-28T16:56:05.869Z,98971.55
2018-04-28T16:58:33.403Z,98968.64
2018-04-28T17:01:01.319Z,98969.56
2018-04-28T17:03:28.821Z,98970.32
2018-04-28T17:05:56.314Z,98973.77
2018-04-28T17:08:23.812Z,98973.98
2018-04-28T17:10:51.796Z,98969.06
2018-04-28T17:13:19.295Z,98966.00
2018-04-28T17:15:46.797Z,98966.93
2018-04-28T17:18:14.282Z,98966.59
2018-04-28T17:20:41.772Z,98971.16
2018-04-28T17:23:09.264Z,98964.34
2018-04-28T17:25:36.755Z,98972.61
2018-04-28T17:28:04.301Z,98971.39
2018-04-28T17:30:31.828Z,98968.02
2018-04-28T17:32:59.301Z,98964.95
2018-04-28T17:35:26.796Z,98971.06
2018-04-28T17:37:54.272Z,98969.66
2018-04-28T17:40:21.775Z,98969.28
2018-04-28T17:42:49.352Z,98970.61
2018-04-28T17:45:16.774Z,98970.40
2018-04-28T17:47:44.250Z,98975.20
2018-04-28T17:50:11.852Z,98981.59
2018-04-28T17:52:39.263Z,98974.90
2018-04-28T17:55:06.750Z,98981.32
2018-04-28T17:57:34.212Z,98990.64
2018-04-28T18:00:01.706Z,98990.61
2018-04-28T18:02:29.199Z,98996.84
2018-04-28T18:04:56.729Z,98992.08
2018-04-28T18:07:24.702Z,98990.92
2018-04-28T18:09:52.172Z,98991.33
2018-04-28T18:12:19.686Z,98992.47
2018-04-28T18:14:47.170Z,98989.80
2018-04-28T18:17:14.673Z,98990.96
2018-04-28T18:19:42.198Z,98988.28
2018-04-28T18:22:09.768Z,98993.43
2018-04-28T18:24:37.275Z,98990.91
2018-04-28T18:27:04.815Z,98993.39
2018-04-28T18:29:32.311Z,98996.00
2018-04-28T18:31:59.803Z,99006.09
2018-04-28T18:34:27.295Z,99003.41
2018-04-28T18:36:54.785Z,99010.84
2018-04-28T18:39:22.288Z,99017.66
2018-04-28T18:41:50.140Z,99014.41
2018-04-28T18:44:17.634Z,99011.13
2018-04-28T18:46:45.142Z,99010.84
2018-04-28T18:49:12.723Z,99008.88
2018-04-28T18:51:40.229Z,99014.38
2018-04-28T18:54:07.727Z,99010.63
2018-04-28T18:56:35.282Z,99013.97
2018-04-28T18:59:02.760Z,99013.39
2018-04-28T19:01:30.264Z,99018.73
2018-04-28T19:03:57.735Z,99013.10
2018-04-28T19:06:25.239Z,99012.60
2018-04-28T19:08:52.790Z,99020.88
2018-04-28T19:11:20.271Z,99018.61
2018-04-28T19:13:47.760Z,99010.16
2018-04-28T19:16:15.279Z,99015.73
2018-04-28T19:18:42.786Z,99011.00
2018-04-28T19:21:10.280Z,99012.16
2018-04-28T19:23:37.791Z,99007.05
2018-04-28T19:26:05.303Z,99003.42
2018-04-28T19:28:32.804Z,99006.27
2018-04-28T19:31:00.292Z,98998.70
2018-04-28T19:33:27.773Z,98999.41
2018-04-28T19:35:55.280Z,99006.03
2018-04-28T19:38:22.771Z,99008.80
2018-04-28T19:40:51.716Z,99008.59
2018-04-28T19:43:19.222Z,99008.59
2018-04-28T19:45:46.733Z,99005.30
2018-04-28T19:48:14.263Z,99009.94
2018-04-28T19:50:41.778Z,99005.44
2018-04-28T19:53:09.337Z,98996.85
2018-04-28T19:55:36.862Z,99007.45
2018-04-28T19:58:04.347Z,98998.51
2018-04-28T20:00:31.919Z,99000.19
2018-04-28T20:02:59.439Z,98996.72
2018-04-28T20:05:26.935Z,99000.47
2018-04-28T20:07:54.456Z,98997.58
2018-04-28T20:10:21.978Z,99001.83
2018-04-28T20:12:49.469Z,98996.21
2018-04-28T20:15:16.968Z,99006.44
2018-04-28T20:17:44.523Z,98998.33
2018-04-28T20:20:12.016Z,98994.55
2018-04-28T20:22:51.155Z,98998.95
2018-04-28T20:25:23.702Z,99001.05
2018-04-28T20:27:51.202Z,99001.89
2018-04-28T20:30:18.905Z,98999.67
2018-04-28T20:32:46.322Z,99002.08
2018-04-28T20:35:13.815Z,99006.33
2018-04-28T20:37:41.326Z,99005.75
2018-04-28T20:40:08.831Z,99004.61
2018-04-28T20:42:36.343Z,99005.70
2018-04-28T20:45:03.854Z,99004.91
2018-04-28T20:47:31.343Z,99006.44
2018-04-28T20:49:58.910Z,99013.05
2018-04-28T20:52:26.429Z,99010.33
2018-04-28T20:54:53.970Z,99012.51
2018-04-28T20:57:21.462Z,99010.83
2018-04-28T20:59:48.963Z,99014.50
2018-04-28T21:02:16.547Z,99016.95
2018-04-28T21:04:44.039Z,99018.20
2018-04-28T21:07:11.531Z,99014.42
2018-04-28T21:09:39.054Z,99015.45
2018-04-28T21:12:06.617Z,99016.91
2018-04-28T21:14:34.109Z,99010.80
2018-04-28T21:17:01.596Z,99001.31
2018-04-28T21:19:29.133Z,99007.97
2018-04-28T21:21:56.630Z,99010.39
2018-04-28T21:24:24.141Z,99011.16
2018-04-28T21:26:51.647Z,99010.27
2018-04-28T21:29:19.167Z,99009.34
2018-04-28T21:31:46.660Z,99008.38
2018-04-28T21:34:14.157Z,99003.45
2018-04-28T21:36:41.660Z,99010.18
2018-04-28T21:39:09.879Z,99013.95
2018-04-28T21:41:37.458Z,99011.06
2018-04-28T21:44:05.011Z,99009.30
2018-04-28T21:46:32.541Z,99008.11
2018-04-28T21:48:59.978Z,99008.34
2018-04-28T21:51:27.454Z,99006.91
2018-04-28T21:53:54.995Z,99008.53
2018-04-28T21:56:22.538Z,99013.05
2018-04-28T21:58:50.406Z,99010.87
2018-04-28T22:01:17.880Z,99018.16
2018-04-28T22:03:45.367Z,99019.38
2018-04-28T22:06:12.866Z,99013.96
2018-04-28T22:08:40.370Z,99011.25
2018-04-28T22:11:07.914Z,99021.00
2018-04-28T22:13:35.414Z,99020.72
2018-04-28T22:16:02.922Z,99028.27
2018-04-28T22:18:30.418Z,99022.84
2018-04-28T22:20:57.982Z,99015.91
2018-04-28T22:23:25.528Z,99012.53
2018-04-28T22:25:53.006Z,99012.02
2018-04-28T22:28:20.507Z,99011.08
2018-04-28T22:30:48.036Z,99005.87
2018-04-28T22:33:15.776Z,99004.06
2018-04-28T22:35:43.252Z,99001.69
2018-04-28T22:38:10.834Z,99005.80
2018-04-28T22:40:38.338Z,99003.90
2018-04-28T22:43:05.865Z,99002.39
2018-04-28T22:45:33.390Z,99000.67
2018-04-28T22:48:00.951Z,98997.56
2018-04-28T22:50:28.452Z,98999.73
2018-04-28T22:52:55.955Z,98997.66
2018-04-28T22:55:23.523Z,98987.54
2018-04-28T22:57:51.019Z,98993.18
2018-04-28T23:00:21.390Z,98990.84
2018-04-28T23:02:48.913Z,98988.70
2018-04-28T23:05:16.412Z,98983.23
2018-04-28T23:07:43.931Z,98989.67
2018-04-28T23:10:11.544Z,98983.69
2018-04-28T23:12:39.102Z,98973.21
2018-04-28T23:15:06.632Z,98983.23
2018-04-28T23:17:34.113Z,98975.31
2018-04-28T23:20:01.731Z,98978.75
2018-04-28T23:22:29.385Z,98975.03
2018-04-28T23:24:56.890Z,98976.78
2018-04-28T23:27:24.359Z,98972.69
2018-04-28T23:29:51.862Z,98964.59
2018-04-28T23:32:19.358Z,98960.48
2018-04-28T23:34:46.998Z,98961.92
2018-04-28T23:37:14.538Z,98961.30
2018-04-28T23:39:42.048Z,98962.39
2018-04-28T23:42:09.560Z,98963.89
2018-04-28T23:44:37.120Z,98961.52
2018-04-28T23:47:04.635Z,98957.48
2018-04-28T23:49:32.132Z,98950.23
2018-04-28T23:51:59.633Z,98955.02
2018-04-28T23:54:27.222Z,98945.43
2018-04-28T23:56:54.740Z,98950.55
2018-04-28T23:59:22.265Z,98951.63
